createdAt,value
2017-09-26T00:00:36.115Z,86.57
2017-09-26T00:03:03.805Z,89.76
2017-09-26T00:05:31.371Z,90.06
2017-09-26T00:07:58.932Z,89.60
2017-09-26T00:10:25.881Z,90.34
2017-09-26T00:12:52.712Z,90.43
2017-09-26T00:15:19.541Z,91.11
2017-09-26T00:17:47.122Z,91.32
2017-09-26T00:20:17.327Z,90.87
2017-09-26T00:22:44.270Z,85.60
2017-09-26T00:25:11.082Z,87.52
2017-09-26T00:27:38.663Z,89.76
2017-09-26T00:30:06.256Z,90.21
2017-09-26T00:32:33.822Z,90.02
2017-09-26T00:35:01.445Z,87.89
2017-09-26T00:37:28.302Z,85.85
2017-09-26T00:39:55.228Z,83.99
2017-09-26T00:42:22.798Z,83.51
2017-09-26T00:44:50.339Z,88.03
2017-09-26T00:47:17.175Z,88.46
2017-09-26T00:49:44.024Z,89.76
2017-09-26T00:52:10.891Z,89.68
2017-09-26T00:54:37.751Z,88.96
2017-09-26T00:57:04.661Z,87.68
2017-09-26T00:59:31.525Z,89.06
2017-09-26T01:01:58.358Z,90.09
2017-09-26T01:04:25.196Z,90.95
2017-09-26T01:06:53.958Z,91.16
2017-09-26T01:09:20.804Z,91.38
2017-09-26T01:11:47.661Z,91.24
2017-09-26T01:14:14.513Z,91.55
2017-09-26T01:16:41.415Z,91.67
2017-09-26T01:19:09.030Z,90.80
2017-09-26T01:21:35.987Z,90.74
2017-09-26T01:24:02.839Z,91.94
2017-09-26T01:26:29.658Z,91.97
2017-09-26T01:28:56.501Z,90.42
2017-09-26T01:31:23.347Z,90.40
2017-09-26T01:33:50.177Z,91.86
2017-09-26T01:36:17.688Z,92.22
2017-09-26T01:38:44.472Z,92.51
2017-09-26T01:41:23.432Z,91.87
2017-09-26T01:43:50.215Z,88.16
2017-09-26T01:46:17.007Z,86.05
2017-09-26T01:48:43.857Z,88.35
2017-09-26T01:51:10.700Z,89.27
2017-09-26T01:53:37.533Z,87.82
2017-09-26T01:56:04.352Z,86.17
2017-09-26T01:58:37.995Z,85.57
2017-09-26T02:01:04.806Z,84.55
2017-09-26T02:03:31.639Z,84.18
2017-09-26T02:05:59.177Z,84.02
2017-09-26T02:08:25.976Z,88.39
2017-09-26T02:10:53.546Z,89.91
2017-09-26T02:13:20.343Z,90.71
2017-09-26T02:15:47.129Z,90.92
2017-09-26T02:18:13.958Z,89.88
2017-09-26T02:20:40.773Z,90.35
2017-09-26T02:23:07.594Z,87.18
2017-09-26T02:25:34.409Z,86.51
2017-09-26T02:28:01.241Z,85.89
2017-09-26T02:30:28.086Z,85.61
2017-09-26T02:32:54.887Z,85.36
2017-09-26T02:35:21.748Z,84.79
2017-09-26T02:37:48.528Z,84.85
2017-09-26T02:40:16.068Z,85.12
2017-09-26T02:42:42.858Z,86.56
2017-09-26T02:45:10.410Z,89.31
2017-09-26T02:47:37.214Z,90.72
2017-09-26T02:50:04.001Z,91.16
2017-09-26T02:52:30.821Z,91.06
2017-09-26T02:54:58.410Z,87.37
2017-09-26T02:57:25.233Z,85.65
2017-09-26T02:59:52.089Z,88.74
2017-09-26T03:02:18.893Z,90.81
2017-09-26T03:04:45.722Z,90.77
2017-09-26T03:07:12.517Z,90.75
2017-09-26T03:09:39.322Z,91.26
2017-09-26T03:12:06.240Z,89.88
2017-09-26T03:14:33.035Z,89.93
2017-09-26T03:16:59.848Z,90.62
2017-09-26T03:19:27.428Z,91.48
2017-09-26T03:21:54.232Z,92.16
2017-09-26T03:24:21.045Z,92.54
2017-09-26T03:26:48.586Z,90.25
2017-09-26T03:29:15.384Z,88.87
2017-09-26T03:31:42.998Z,88.08
2017-09-26T03:34:09.827Z,90.36
2017-09-26T03:36:36.674Z,91.42
2017-09-26T03:39:04.281Z,91.87
2017-09-26T03:41:31.080Z,90.14
2017-09-26T03:43:57.869Z,91.10
2017-09-26T03:46:25.465Z,87.12
2017-09-26T03:48:52.264Z,86.05
2017-09-26T03:51:19.075Z,87.25
2017-09-26T03:53:46.679Z,89.96
2017-09-26T03:56:13.498Z,89.16
2017-09-26T03:58:40.374Z,90.27
2017-09-26T04:01:07.959Z,90.38
2017-09-26T04:03:35.558Z,91.23
2017-09-26T04:06:02.429Z,91.90
2017-09-26T04:08:29.362Z,91.72
2017-09-26T04:10:56.929Z,90.58
2017-09-26T04:13:24.520Z,90.71
2017-09-26T04:15:52.073Z,88.50
2017-09-26T04:18:18.978Z,87.90
2017-09-26T04:20:45.800Z,87.19
2017-09-26T04:23:12.614Z,90.49
2017-09-26T04:25:39.433Z,88.34
2017-09-26T04:28:07.075Z,87.49
2017-09-26T04:30:33.919Z,90.49
2017-09-26T04:33:00.722Z,90.09
2017-09-26T04:35:27.550Z,88.82
2017-09-26T04:37:54.337Z,86.92
2017-09-26T04:40:21.177Z,89.26
2017-09-26T04:42:48.006Z,91.11
2017-09-26T04:45:14.846Z,91.80
2017-09-26T04:47:42.382Z,91.26
2017-09-26T04:50:09.248Z,89.75
2017-09-26T04:52:36.070Z,91.83
2017-09-26T04:55:02.864Z,92.07
2017-09-26T04:57:29.700Z,91.16
2017-09-26T04:59:56.494Z,91.17
2017-09-26T05:02:23.343Z,91.09
2017-09-26T05:04:50.214Z,91.42
2017-09-26T05:07:17.028Z,92.10
2017-09-26T05:09:44.583Z,91.42
2017-09-26T05:12:12.167Z,92.24
2017-09-26T05:14:38.997Z,89.33
2017-09-26T05:17:05.801Z,87.47
2017-09-26T05:19:32.610Z,86.76
2017-09-26T05:21:59.426Z,86.37
2017-09-26T05:24:26.237Z,86.33
2017-09-26T05:26:53.070Z,86.07
2017-09-26T05:29:19.856Z,85.98
2017-09-26T05:31:46.667Z,90.07
2017-09-26T05:34:14.202Z,88.60
2017-09-26T05:36:41.024Z,86.81
2017-09-26T05:39:07.850Z,88.26
2017-09-26T05:41:34.648Z,90.64
2017-09-26T05:44:01.492Z,90.98
2017-09-26T05:46:28.293Z,91.52
2017-09-26T05:48:55.127Z,92.40
2017-09-26T05:51:21.916Z,90.13
2017-09-26T05:53:48.703Z,87.57
2017-09-26T05:56:16.205Z,88.07
2017-09-26T05:58:42.976Z,90.93
2017-09-26T06:01:09.768Z,88.13
2017-09-26T06:03:36.582Z,86.70
2017-09-26T06:06:03.418Z,87.00
2017-09-26T06:08:30.962Z,87.36
2017-09-26T06:10:57.759Z,86.65
2017-09-26T06:13:25.318Z,89.65
2017-09-26T06:15:52.843Z,88.04
2017-09-26T06:18:19.673Z,88.19
2017-09-26T06:20:46.468Z,87.98
2017-09-26T06:23:13.306Z,86.32
2017-09-26T06:25:40.130Z,85.86
2017-09-26T06:28:06.938Z,85.67
2017-09-26T06:30:33.757Z,85.88
2017-09-26T06:33:01.279Z,87.33
2017-09-26T06:35:28.102Z,87.16
2017-09-26T06:37:55.678Z,86.40
2017-09-26T06:40:23.204Z,87.00
2017-09-26T06:42:50.037Z,88.23
2017-09-26T06:45:16.898Z,89.84
2017-09-26T06:47:43.688Z,88.86
2017-09-26T06:50:10.517Z,90.08
2017-09-26T06:52:37.310Z,90.81
2017-09-26T06:55:04.152Z,88.42
2017-09-26T06:57:30.955Z,86.90
2017-09-26T06:59:57.766Z,90.41
2017-09-26T07:02:24.562Z,90.43
2017-09-26T07:04:51.382Z,87.95
2017-09-26T07:07:18.205Z,86.70
2017-09-26T07:09:44.995Z,86.41
2017-09-26T07:12:11.794Z,86.15
2017-09-26T07:14:38.569Z,86.47
2017-09-26T07:17:05.361Z,86.02
2017-09-26T07:19:32.896Z,85.98
2017-09-26T07:21:59.709Z,85.54
2017-09-26T07:24:26.537Z,85.45
2017-09-26T07:26:53.381Z,85.65
2017-09-26T07:29:20.217Z,87.05
2017-09-26T07:31:47.102Z,89.08
2017-09-26T07:34:13.918Z,88.95
2017-09-26T07:36:40.759Z,89.38
2017-09-26T07:39:08.288Z,89.79
2017-09-26T07:41:35.084Z,89.79
2017-09-26T07:44:01.868Z,89.29
2017-09-26T07:46:28.670Z,89.43
2017-09-26T07:48:55.474Z,89.28
2017-09-26T07:51:23.079Z,89.75
2017-09-26T07:53:49.857Z,87.22
2017-09-26T07:56:16.656Z,87.19
2017-09-26T07:58:43.511Z,88.69
2017-09-26T08:01:11.082Z,89.02
2017-09-26T08:03:38.556Z,89.61
2017-09-26T08:06:06.131Z,87.99
2017-09-26T08:08:33.786Z,89.53
2017-09-26T08:11:00.581Z,86.42
2017-09-26T08:13:27.391Z,86.81
2017-09-26T08:15:54.190Z,87.32
2017-09-26T08:18:20.972Z,87.06
2017-09-26T08:20:47.776Z,87.24
2017-09-26T08:23:14.591Z,87.47
2017-09-26T08:25:41.390Z,87.44
2017-09-26T08:28:08.196Z,86.35
2017-09-26T08:30:35.059Z,85.87
2017-09-26T08:33:01.857Z,85.70
2017-09-26T08:35:28.682Z,86.10
2017-09-26T08:37:55.518Z,85.25
2017-09-26T08:40:22.381Z,84.72
2017-09-26T08:42:49.181Z,85.25
2017-09-26T08:45:17.726Z,84.27
2017-09-26T08:47:44.673Z,82.93
2017-09-26T08:50:11.511Z,84.60
2017-09-26T08:52:38.301Z,84.23
2017-09-26T08:55:05.116Z,84.66
2017-09-26T08:57:31.966Z,83.52
2017-09-26T08:59:58.856Z,84.47
2017-09-26T09:02:26.408Z,83.74
2017-09-26T09:04:53.214Z,83.38
2017-09-26T09:07:20.031Z,82.78
2017-09-26T09:09:46.877Z,82.98
2017-09-26T09:12:13.742Z,81.91
2017-09-26T09:14:40.576Z,81.51
2017-09-26T09:17:07.390Z,81.50
2017-09-26T09:19:34.195Z,80.79
2017-09-26T09:22:00.997Z,81.55
2017-09-26T09:24:27.807Z,80.69
2017-09-26T09:26:54.595Z,78.83
2017-09-26T09:29:21.510Z,78.89
2017-09-26T09:31:49.073Z,78.22
2017-09-26T09:34:16.573Z,77.78
2017-09-26T09:36:43.407Z,77.34
2017-09-26T09:39:10.192Z,77.62
2017-09-26T09:41:37.020Z,80.20
2017-09-26T09:44:03.831Z,79.32
2017-09-26T09:46:30.615Z,77.21
2017-09-26T09:48:57.395Z,77.15
2017-09-26T09:51:24.229Z,77.99
2017-09-26T09:53:51.031Z,77.08
2017-09-26T09:56:17.855Z,76.29
2017-09-26T09:58:44.641Z,76.02
2017-09-26T10:01:11.438Z,75.49
2017-09-26T10:03:38.256Z,74.62
2017-09-26T10:06:05.078Z,74.89
2017-09-26T10:08:31.873Z,75.00
2017-09-26T10:10:58.691Z,73.17
2017-09-26T10:13:25.486Z,73.67
2017-09-26T10:15:52.297Z,73.14
2017-09-26T10:18:19.113Z,72.42
2017-09-26T10:20:45.978Z,71.62
2017-09-26T10:23:12.785Z,71.63
2017-09-26T10:25:39.600Z,72.98
2017-09-26T10:28:06.413Z,72.73
2017-09-26T10:30:33.236Z,73.61
2017-09-26T10:33:00.753Z,72.74
2017-09-26T10:35:27.544Z,71.93
2017-09-26T10:37:54.334Z,71.75
2017-09-26T10:40:21.160Z,71.28
2017-09-26T10:42:47.945Z,70.76
2017-09-26T10:45:14.757Z,71.15
2017-09-26T10:47:41.528Z,71.27
2017-09-26T10:50:09.061Z,70.74
2017-09-26T10:52:36.611Z,70.09
2017-09-26T10:55:03.421Z,70.64
2017-09-26T10:57:30.227Z,69.90
2017-09-26T10:59:57.034Z,68.93
2017-09-26T11:02:23.836Z,68.34
2017-09-26T11:04:50.637Z,67.41
2017-09-26T11:07:18.167Z,66.77
2017-09-26T11:09:45.018Z,68.41
2017-09-26T11:12:11.792Z,68.04
2017-09-26T11:14:38.577Z,66.48
2017-09-26T11:17:05.369Z,65.60
2017-09-26T11:19:32.209Z,64.43
2017-09-26T11:21:59.912Z,64.09
2017-09-26T11:24:30.051Z,63.04
2017-09-26T11:26:56.996Z,63.00
2017-09-26T11:29:24.565Z,61.34
2017-09-26T11:31:51.726Z,62.07
2017-09-26T11:34:18.542Z,61.34
2017-09-26T11:36:45.967Z,61.63
2017-09-26T11:39:13.253Z,62.02
2017-09-26T11:41:40.096Z,61.69
2017-09-26T11:44:07.849Z,62.61
2017-09-26T11:46:35.070Z,61.44
2017-09-26T11:49:02.693Z,63.03
2017-09-26T11:51:29.486Z,62.33
2017-09-26T11:53:56.306Z,63.13
2017-09-26T11:56:23.111Z,60.05
2017-09-26T11:58:49.944Z,60.09
2017-09-26T12:01:17.637Z,59.33
2017-09-26T12:03:44.489Z,60.32
2017-09-26T12:06:11.317Z,59.08
2017-09-26T12:08:38.196Z,58.52
2017-09-26T12:11:05.001Z,60.55
2017-09-26T12:13:38.671Z,60.62
2017-09-26T12:16:05.567Z,58.89
2017-09-26T12:18:32.395Z,58.25
2017-09-26T12:20:59.223Z,58.13
2017-09-26T12:23:26.040Z,59.21
2017-09-26T12:25:52.855Z,58.26
2017-09-26T12:28:19.664Z,59.70
2017-09-26T12:30:46.472Z,57.76
2017-09-26T12:33:13.283Z,57.46
2017-09-26T12:35:40.159Z,58.50
2017-09-26T12:38:06.974Z,57.97
2017-09-26T12:40:33.816Z,59.48
2017-09-26T12:43:00.645Z,59.51
2017-09-26T12:45:27.481Z,59.76
2017-09-26T12:47:54.330Z,60.60
2017-09-26T12:50:21.213Z,59.51
2017-09-26T12:52:48.354Z,59.40
2017-09-26T12:55:15.307Z,60.46
2017-09-26T12:57:42.922Z,61.83
2017-09-26T13:00:09.764Z,62.25
2017-09-26T13:02:36.631Z,61.01
2017-09-26T13:05:03.634Z,62.10
2017-09-26T13:07:30.522Z,62.70
2017-09-26T13:10:00.389Z,64.20
2017-09-26T13:12:27.593Z,63.73
2017-09-26T13:14:55.176Z,63.75
2017-09-26T13:17:22.786Z,64.37
2017-09-26T13:19:49.708Z,64.89
2017-09-26T13:22:16.521Z,64.80
2017-09-26T13:24:43.353Z,65.27
2017-09-26T13:27:10.171Z,65.22
2017-09-26T13:29:37.002Z,65.01
2017-09-26T13:32:04.534Z,65.62
2017-09-26T13:34:31.431Z,65.50
2017-09-26T13:36:58.224Z,66.29
2017-09-26T13:39:25.057Z,65.72
2017-09-26T13:41:51.891Z,66.83
2017-09-26T13:44:19.435Z,65.92
2017-09-26T13:46:46.239Z,65.53
2017-09-26T13:49:13.032Z,60.21
2017-09-26T13:51:40.486Z,61.80
2017-09-26T13:54:07.275Z,60.48
2017-09-26T13:56:35.439Z,62.76
2017-09-26T13:59:03.037Z,65.60
2017-09-26T14:01:29.879Z,67.33
2017-09-26T14:03:56.676Z,68.93
2017-09-26T14:06:23.511Z,71.10
2017-09-26T14:08:51.036Z,69.60
2017-09-26T14:11:18.591Z,71.65
2017-09-26T14:13:45.968Z,75.22
2017-09-26T14:16:13.473Z,73.13
2017-09-26T14:18:41.104Z,75.62
2017-09-26T14:21:07.934Z,76.70
2017-09-26T14:23:35.367Z,77.82
2017-09-26T14:26:02.160Z,76.95
2017-09-26T14:28:29.044Z,76.17
2017-09-26T14:30:56.044Z,78.60
2017-09-26T14:33:22.918Z,78.72
2017-09-26T14:35:49.915Z,80.99
2017-09-26T14:38:16.788Z,83.99
2017-09-26T14:40:43.612Z,84.35
2017-09-26T14:43:11.188Z,85.10
2017-09-26T14:45:37.980Z,85.36
2017-09-26T14:48:05.221Z,84.21
2017-09-26T14:50:32.775Z,83.46
2017-09-26T14:52:59.576Z,79.51
2017-09-26T14:55:27.095Z,78.81
2017-09-26T14:57:53.933Z,78.41
2017-09-26T15:00:22.514Z,78.71
2017-09-26T15:02:49.402Z,78.28
2017-09-26T15:05:16.242Z,81.58
2017-09-26T15:07:43.085Z,79.24
2017-09-26T15:10:10.626Z,80.28
2017-09-26T15:12:37.713Z,83.04
2017-09-26T15:15:04.526Z,84.99
2017-09-26T15:17:31.372Z,85.45
2017-09-26T15:19:59.007Z,84.09
2017-09-26T15:22:25.820Z,81.05
2017-09-26T15:24:52.628Z,84.01
2017-09-26T15:27:19.916Z,82.09
2017-09-26T15:29:46.705Z,80.18
2017-09-26T15:32:14.150Z,79.88
2017-09-26T15:34:42.383Z,81.05
2017-09-26T15:37:09.225Z,83.87
2017-09-26T15:39:36.094Z,85.35
2017-09-26T15:42:02.906Z,84.56
2017-09-26T15:44:30.159Z,85.95
2017-09-26T15:46:57.314Z,86.43
2017-09-26T15:49:24.183Z,84.67
2017-09-26T15:51:51.392Z,81.63
2017-09-26T15:54:18.988Z,80.98
2017-09-26T15:56:46.551Z,82.23
2017-09-26T15:59:13.352Z,80.99
2017-09-26T16:01:40.136Z,81.05
2017-09-26T16:04:07.389Z,81.28
2017-09-26T16:06:34.216Z,85.14
2017-09-26T16:09:01.834Z,86.81
2017-09-26T16:11:28.637Z,87.99
2017-09-26T16:13:55.408Z,86.62
2017-09-26T16:16:22.923Z,84.14
2017-09-26T16:18:50.470Z,82.18
2017-09-26T16:21:17.310Z,85.17
2017-09-26T16:23:44.130Z,87.12
2017-09-26T16:26:10.929Z,88.29
2017-09-26T16:28:37.729Z,89.30
2017-09-26T16:31:04.533Z,88.93
2017-09-26T16:33:31.347Z,89.78
2017-09-26T16:35:58.148Z,89.42
2017-09-26T16:38:24.985Z,87.86
2017-09-26T16:40:51.789Z,87.12
2017-09-26T16:43:18.584Z,85.92
2017-09-26T16:45:45.403Z,83.64
2017-09-26T16:48:12.224Z,82.93
2017-09-26T16:50:39.078Z,82.57
2017-09-26T16:53:05.869Z,82.34
2017-09-26T16:55:32.743Z,82.36
2017-09-26T16:57:59.507Z,88.40
2017-09-26T17:00:26.323Z,88.42
2017-09-26T17:02:53.161Z,86.64
2017-09-26T17:05:20.715Z,89.05
2017-09-26T17:07:48.393Z,88.67
2017-09-26T17:10:15.220Z,89.25
2017-09-26T17:12:42.057Z,89.88
2017-09-26T17:15:08.894Z,90.81
2017-09-26T17:17:36.459Z,91.27
2017-09-26T17:20:03.338Z,91.66
2017-09-26T17:22:30.916Z,90.89
2017-09-26T17:24:59.023Z,88.14
2017-09-26T17:27:26.045Z,87.69
2017-09-26T17:29:54.025Z,85.34
2017-09-26T17:32:21.035Z,84.37
2017-09-26T17:34:47.876Z,85.70
2017-09-26T17:37:15.484Z,86.00
2017-09-26T17:39:42.363Z,84.46
2017-09-26T17:42:09.181Z,87.61
2017-09-26T17:44:37.051Z,90.31
2017-09-26T17:47:03.901Z,90.72
2017-09-26T17:49:30.739Z,91.21
2017-09-26T17:51:57.561Z,91.59
2017-09-26T17:54:25.259Z,91.67
2017-09-26T17:56:52.139Z,92.10
2017-09-26T17:59:18.980Z,89.27
2017-09-26T18:01:45.883Z,86.17
2017-09-26T18:04:12.830Z,85.60
2017-09-26T18:06:39.654Z,85.10
2017-09-26T18:09:06.502Z,87.36
2017-09-26T18:11:34.069Z,85.80
2017-09-26T18:14:01.646Z,85.18
2017-09-26T18:16:28.534Z,85.54
2017-09-26T18:18:55.406Z,88.85
2017-09-26T18:21:22.470Z,87.19
2017-09-26T18:23:49.335Z,85.77
2017-09-26T18:26:16.179Z,85.30
2017-09-26T18:28:43.215Z,86.38
2017-09-26T18:31:10.818Z,86.73
2017-09-26T18:33:38.994Z,85.31
2017-09-26T18:36:05.839Z,88.03
2017-09-26T18:38:32.715Z,91.30
2017-09-26T18:41:00.268Z,90.50
2017-09-26T18:43:27.154Z,90.83
2017-09-26T18:45:54.083Z,91.73
2017-09-26T18:48:20.910Z,92.20
2017-09-26T18:50:47.771Z,91.01
2017-09-26T18:53:15.101Z,87.49
2017-09-26T18:55:42.160Z,90.87
2017-09-26T18:58:09.791Z,89.86
2017-09-26T19:00:36.661Z,86.97
2017-09-26T19:03:03.509Z,89.46
2017-09-26T19:05:30.416Z,90.87
2017-09-26T19:07:57.348Z,89.50
2017-09-26T19:10:25.234Z,91.77
2017-09-26T19:12:52.155Z,90.60
2017-09-26T19:15:19.081Z,90.61
2017-09-26T19:17:46.628Z,91.67
2017-09-26T19:20:13.917Z,89.11
2017-09-26T19:22:40.844Z,87.06
2017-09-26T19:25:07.723Z,86.20
2017-09-26T19:27:34.660Z,88.53
2017-09-26T19:30:02.390Z,91.66
2017-09-26T19:32:29.993Z,91.48
2017-09-26T19:34:57.683Z,89.71
2017-09-26T19:37:24.518Z,90.91
2017-09-26T19:39:51.410Z,92.20
2017-09-26T19:42:18.750Z,91.15
2017-09-26T19:44:45.813Z,87.32
2017-09-26T19:47:13.291Z,87.12
2017-09-26T19:49:40.245Z,86.17
2017-09-26T19:52:08.084Z,85.70
2017-09-26T19:54:35.034Z,85.58
2017-09-26T19:57:02.600Z,85.54
2017-09-26T19:59:29.446Z,87.47
2017-09-26T20:01:56.337Z,88.47
2017-09-26T20:04:23.183Z,86.03
2017-09-26T20:06:50.015Z,87.56
2017-09-26T20:09:16.887Z,88.73
2017-09-26T20:11:43.712Z,90.52
2017-09-26T20:14:10.645Z,91.88
2017-09-26T20:16:38.227Z,92.79
2017-09-26T20:19:05.033Z,92.80
2017-09-26T20:21:31.839Z,93.02
2017-09-26T20:23:58.664Z,92.31
2017-09-26T20:26:26.219Z,90.91
2017-09-26T20:28:53.028Z,89.62
2017-09-26T20:31:19.865Z,90.07
2017-09-26T20:33:46.730Z,91.79
2017-09-26T20:36:13.580Z,92.51
2017-09-26T20:38:40.392Z,91.42
2017-09-26T20:41:07.220Z,92.50
2017-09-26T20:43:35.622Z,92.76
2017-09-26T20:46:02.562Z,93.21
2017-09-26T20:48:29.479Z,92.01
2017-09-26T20:50:56.334Z,90.68
2017-09-26T20:53:23.164Z,91.31
2017-09-26T20:55:50.019Z,89.76
2017-09-26T20:58:16.903Z,88.14
2017-09-26T21:00:44.249Z,90.69
2017-09-26T21:03:11.490Z,92.24
2017-09-26T21:05:38.391Z,92.37
2017-09-26T21:08:05.252Z,92.91
2017-09-26T21:10:32.095Z,92.65
2017-09-26T21:12:59.712Z,93.21
2017-09-26T21:15:27.579Z,93.24
2017-09-26T21:17:54.482Z,90.32
2017-09-26T21:20:22.290Z,88.20
2017-09-26T21:22:49.326Z,87.33
2017-09-26T21:25:16.674Z,87.15
2017-09-26T21:27:44.299Z,89.34
2017-09-26T21:30:11.450Z,88.26
2017-09-26T21:32:39.026Z,90.22
2017-09-26T21:35:06.610Z,92.47
2017-09-26T21:37:34.231Z,92.94
2017-09-26T21:40:01.068Z,92.15
2017-09-26T21:42:27.901Z,91.85
2017-09-26T21:44:54.741Z,92.89
2017-09-26T21:47:21.598Z,91.23
2017-09-26T21:49:48.602Z,92.57
2017-09-26T21:52:16.353Z,92.99
2017-09-26T21:54:43.202Z,93.48
2017-09-26T21:57:10.099Z,93.82
2017-09-26T21:59:37.634Z,92.89
2017-09-26T22:02:04.516Z,89.08
2017-09-26T22:04:31.479Z,89.16
2017-09-26T22:06:58.343Z,88.82
2017-09-26T22:09:25.478Z,90.76
2017-09-26T22:11:52.350Z,93.01
2017-09-26T22:14:19.314Z,93.55
2017-09-26T22:16:46.349Z,93.37
2017-09-26T22:19:13.325Z,92.68
2017-09-26T22:21:40.258Z,90.51
2017-09-26T22:24:07.908Z,88.66
2017-09-26T22:26:34.742Z,88.98
2017-09-26T22:29:01.517Z,88.54
2017-09-26T22:31:28.321Z,88.79
2017-09-26T22:33:55.138Z,90.73
2017-09-26T22:36:22.093Z,91.86
2017-09-26T22:38:48.875Z,91.19
2017-09-26T22:41:15.777Z,91.05
2017-09-26T22:43:42.638Z,90.90
2017-09-26T22:46:09.541Z,92.18
2017-09-26T22:48:36.472Z,93.48
2017-09-26T22:51:03.414Z,93.51
2017-09-26T22:53:31.026Z,92.63
2017-09-26T22:55:58.793Z,93.33
2017-09-26T22:58:25.729Z,93.32
2017-09-26T23:00:52.656Z,93.50
2017-09-26T23:03:19.670Z,93.43
2017-09-26T23:05:47.300Z,93.31
2017-09-26T23:08:14.146Z,90.68
2017-09-26T23:10:41.008Z,89.28
2017-09-26T23:13:07.811Z,90.07
2017-09-26T23:15:34.600Z,89.16
2017-09-26T23:18:01.407Z,89.72
2017-09-26T23:20:29.608Z,89.80
2017-09-26T23:22:56.468Z,88.83
2017-09-26T23:25:23.306Z,89.73
2017-09-26T23:27:50.222Z,88.67
2017-09-26T23:30:17.834Z,89.59
2017-09-26T23:32:45.453Z,91.95
2017-09-26T23:35:13.062Z,92.02
2017-09-26T23:37:40.627Z,91.34
2017-09-26T23:40:07.431Z,91.46
2017-09-26T23:42:34.253Z,93.34
2017-09-26T23:45:01.973Z,94.01
2017-09-26T23:47:28.796Z,93.67
2017-09-26T23:49:56.350Z,91.50
2017-09-26T23:52:23.216Z,92.19
2017-09-26T23:54:50.407Z,91.31
2017-09-26T23:57:17.959Z,92.93
2017-09-26T23:59:44.839Z,93.50
